sensor_id;sensor_type;location;lat;lon;timestamp;temperature;humidity
10057;DHT22;5068;51.286;7.518;2022-10-16T00:00:42;11.90;67.20
10057;DHT22;5068;51.286;7.518;2022-10-16T00:02:16;11.90;67.20
10057;DHT22;5068;51.286;7.518;2022-10-16T00:03:51;11.90;68.00
10057;DHT22;5068;51.286;7.518;2022-10-16T00:05:25;11.90;67.20
10057;DHT22;5068;51.286;7.518;2022-10-16T00:06:59;11.90;67.20
10057;DHT22;5068;51.286;7.518;2022-10-16T00:08:32;11.90;67.20
10057;DHT22;5068;51.286;7.518;2022-10-16T00:10:07;11.90;67.20
10057;DHT22;5068;51.286;7.518;2022-10-16T00:11:49;11.80;67.10
10057;DHT22;5068;51.286;7.518;2022-10-16T00:13:22;11.90;67.20
10057;DHT22;5068;51.286;7.518;2022-10-16T00:15:03;11.80;67.20
10057;DHT22;5068;51.286;7.518;2022-10-16T00:16:39;11.80;67.30
10057;DHT22;5068;51.286;7.518;2022-10-16T00:18:13;11.80;67.30
10057;DHT22;5068;51.286;7.518;2022-10-16T00:19:50;11.80;67.30
10057;DHT22;5068;51.286;7.518;2022-10-16T00:21:37;11.80;67.30
10057;DHT22;5068;51.286;7.518;2022-10-16T00:23:22;11.80;67.30
10057;DHT22;5068;51.286;7.518;2022-10-16T00:24:56;11.90;67.40
10057;DHT22;5068;51.286;7.518;2022-10-16T00:26:34;11.80;67.30
10057;DHT22;5068;51.286;7.518;2022-10-16T00:28:11;11.80;67.50
10057;DHT22;5068;51.286;7.518;2022-10-16T00:29:49;11.80;67.50
10057;DHT22;5068;51.286;7.518;2022-10-16T00:31:24;11.70;67.40
10057;DHT22;5068;51.286;7.518;2022-10-16T00:32:58;11.70;67.50
10057;DHT22;5068;51.286;7.518;2022-10-16T00:34:33;11.70;67.50
10057;DHT22;5068;51.286;7.518;2022-10-16T00:36:11;11.70;67.60
10057;DHT22;5068;51.286;7.518;2022-10-16T00:37:47;11.70;67.60
10057;DHT22;5068;51.286;7.518;2022-10-16T00:39:21;11.70;67.60
10057;DHT22;5068;51.286;7.518;2022-10-16T00:40:58;11.70;67.60
10057;DHT22;5068;51.286;7.518;2022-10-16T00:42:31;11.70;67.70
10057;DHT22;5068;51.286;7.518;2022-10-16T00:46:20;11.70;67.80
10057;DHT22;5068;51.286;7.518;2022-10-16T00:48:00;11.70;67.60
10057;DHT22;5068;51.286;7.518;2022-10-16T00:49:33;11.70;67.70
10057;DHT22;5068;51.286;7.518;2022-10-16T00:51:12;11.70;67.70
10057;DHT22;5068;51.286;7.518;2022-10-16T00:52:48;11.70;67.70
10057;DHT22;5068;51.286;7.518;2022-10-16T00:54:27;11.70;67.70
10057;DHT22;5068;51.286;7.518;2022-10-16T00:56:04;11.60;67.60
10057;DHT22;5068;51.286;7.518;2022-10-16T00:57:39;11.70;67.70
10057;DHT22;5068;51.286;7.518;2022-10-16T00:59:16;11.70;67.60
10057;DHT22;5068;51.286;7.518;2022-10-16T01:00:56;11.60;67.30
10057;DHT22;5068;51.286;7.518;2022-10-16T01:02:39;11.60;67.30
10057;DHT22;5068;51.286;7.518;2022-10-16T01:04:20;11.60;67.30
10057;DHT22;5068;51.286;7.518;2022-10-16T01:06:18;11.60;67.30
10057;DHT22;5068;51.286;7.518;2022-10-16T01:08:04;11.60;67.30
10057;DHT22;5068;51.286;7.518;2022-10-16T01:09:55;11.60;67.60
10057;DHT22;5068;51.286;7.518;2022-10-16T01:11:49;11.60;67.70
10057;DHT22;5068;51.286;7.518;2022-10-16T01:13:40;11.60;67.60
10057;DHT22;5068;51.286;7.518;2022-10-16T01:15:26;11.50;67.40
10057;DHT22;5068;51.286;7.518;2022-10-16T01:17:10;11.60;67.30
10057;DHT22;5068;51.286;7.518;2022-10-16T01:18:57;11.50;67.30
10057;DHT22;5068;51.286;7.518;2022-10-16T01:20:44;11.50;67.30
10057;DHT22;5068;51.286;7.518;2022-10-16T01:22:33;11.50;67.40
10057;DHT22;5068;51.286;7.518;2022-10-16T01:24:27;11.50;67.40
10057;DHT22;5068;51.286;7.518;2022-10-16T01:26:20;11.50;67.40
10057;DHT22;5068;51.286;7.518;2022-10-16T01:28:11;11.50;67.50
10057;DHT22;5068;51.286;7.518;2022-10-16T01:29:53;11.50;67.40
10057;DHT22;5068;51.286;7.518;2022-10-16T01:31:35;11.40;67.30
10057;DHT22;5068;51.286;7.518;2022-10-16T01:33:17;11.40;67.30
10057;DHT22;5068;51.286;7.518;2022-10-16T01:35:02;11.40;67.30
10057;DHT22;5068;51.286;7.518;2022-10-16T01:36:44;11.40;67.40
10057;DHT22;5068;51.286;7.518;2022-10-16T01:38:28;11.30;67.20
10057;DHT22;5068;51.286;7.518;2022-10-16T01:40:10;11.30;67.20
10057;DHT22;5068;51.286;7.518;2022-10-16T01:41:51;11.30;67.30
10057;DHT22;5068;51.286;7.518;2022-10-16T01:43:36;11.30;67.50
10057;DHT22;5068;51.286;7.518;2022-10-16T01:45:15;11.30;67.50
10057;DHT22;5068;51.286;7.518;2022-10-16T01:46:55;11.30;67.60
10057;DHT22;5068;51.286;7.518;2022-10-16T01:48:29;11.30;67.60
10057;DHT22;5068;51.286;7.518;2022-10-16T01:50:07;11.30;67.60
10057;DHT22;5068;51.286;7.518;2022-10-16T01:51:44;11.30;67.60
10057;DHT22;5068;51.286;7.518;2022-10-16T01:53:22;11.20;67.60
10057;DHT22;5068;51.286;7.518;2022-10-16T01:54:57;11.30;67.60
10057;DHT22;5068;51.286;7.518;2022-10-16T01:56:34;11.30;67.60
10057;DHT22;5068;51.286;7.518;2022-10-16T01:58:10;11.30;67.60
10057;DHT22;5068;51.286;7.518;2022-10-16T01:59:50;11.20;67.50
10057;DHT22;5068;51.286;7.518;2022-10-16T02:01:33;11.20;67.40
10057;DHT22;5068;51.286;7.518;2022-10-16T02:03:15;11.20;67.30
10057;DHT22;5068;51.286;7.518;2022-10-16T02:05:02;11.20;67.30
10057;DHT22;5068;51.286;7.518;2022-10-16T02:06:47;11.20;67.30
10057;DHT22;5068;51.286;7.518;2022-10-16T02:08:24;11.20;67.20
10057;DHT22;5068;51.286;7.518;2022-10-16T02:10:01;11.20;67.20
10057;DHT22;5068;51.286;7.518;2022-10-16T02:11:34;11.20;67.20
10057;DHT22;5068;51.286;7.518;2022-10-16T02:13:17;11.20;67.20
10057;DHT22;5068;51.286;7.518;2022-10-16T02:14:58;11.20;67.20
10057;DHT22;5068;51.286;7.518;2022-10-16T02:16:36;11.10;67.10
10057;DHT22;5068;51.286;7.518;2022-10-16T02:18:16;11.20;67.30
10057;DHT22;5068;51.286;7.518;2022-10-16T02:19:52;11.20;67.20
10057;DHT22;5068;51.286;7.518;2022-10-16T02:21:30;11.20;67.20
10057;DHT22;5068;51.286;7.518;2022-10-16T02:23:19;11.10;67.10
10057;DHT22;5068;51.286;7.518;2022-10-16T02:24:59;11.10;67.00
10057;DHT22;5068;51.286;7.518;2022-10-16T02:26:43;11.10;67.10
10057;DHT22;5068;51.286;7.518;2022-10-16T02:28:25;11.10;67.00
10057;DHT22;5068;51.286;7.518;2022-10-16T02:30:07;11.10;67.10
10057;DHT22;5068;51.286;7.518;2022-10-16T02:31:52;11.10;67.10
10057;DHT22;5068;51.286;7.518;2022-10-16T02:33:30;11.10;67.00
10057;DHT22;5068;51.286;7.518;2022-10-16T02:35:11;11.10;67.00
10057;DHT22;5068;51.286;7.518;2022-10-16T02:36:47;11.10;67.00
10057;DHT22;5068;51.286;7.518;2022-10-16T02:38:28;11.10;67.00
10057;DHT22;5068;51.286;7.518;2022-10-16T02:40:06;11.00;66.90
10057;DHT22;5068;51.286;7.518;2022-10-16T02:41:40;11.10;67.10
10057;DHT22;5068;51.286;7.518;2022-10-16T02:43:16;11.10;67.20
10057;DHT22;5068;51.286;7.518;2022-10-16T02:44:51;11.00;67.00
10057;DHT22;5068;51.286;7.518;2022-10-16T02:46:26;11.00;66.90
10057;DHT22;5068;51.286;7.518;2022-10-16T02:48:01;11.10;67.20
10057;DHT22;5068;51.286;7.518;2022-10-16T02:49:36;11.00;67.10
10057;DHT22;5068;51.286;7.518;2022-10-16T02:51:10;11.00;67.20
10057;DHT22;5068;51.286;7.518;2022-10-16T02:52:44;11.00;67.30
10057;DHT22;5068;51.286;7.518;2022-10-16T02:54:19;11.00;67.30
10057;DHT22;5068;51.286;7.518;2022-10-16T02:55:54;11.00;67.40
10057;DHT22;5068;51.286;7.518;2022-10-16T02:57:29;10.90;67.30
10057;DHT22;5068;51.286;7.518;2022-10-16T02:59:04;11.00;67.50
10057;DHT22;5068;51.286;7.518;2022-10-16T03:00:38;11.00;67.50
10057;DHT22;5068;51.286;7.518;2022-10-16T03:02:13;11.00;67.50
10057;DHT22;5068;51.286;7.518;2022-10-16T03:03:46;11.00;67.50
10057;DHT22;5068;51.286;7.518;2022-10-16T03:05:22;10.90;67.40
10057;DHT22;5068;51.286;7.518;2022-10-16T03:07:01;10.90;67.30
10057;DHT22;5068;51.286;7.518;2022-10-16T03:08:35;10.90;67.40
10057;DHT22;5068;51.286;7.518;2022-10-16T03:10:09;10.90;67.30
10057;DHT22;5068;51.286;7.518;2022-10-16T03:11:44;10.90;67.50
10057;DHT22;5068;51.286;7.518;2022-10-16T03:13:18;10.90;67.50
10057;DHT22;5068;51.286;7.518;2022-10-16T03:14:53;10.90;67.60
10057;DHT22;5068;51.286;7.518;2022-10-16T03:16:26;11.00;67.80
10057;DHT22;5068;51.286;7.518;2022-10-16T03:18:04;11.00;67.80
10057;DHT22;5068;51.286;7.518;2022-10-16T03:19:39;10.90;67.80
10057;DHT22;5068;51.286;7.518;2022-10-16T03:21:22;10.90;67.80
10057;DHT22;5068;51.286;7.518;2022-10-16T03:22:56;10.90;67.80
10057;DHT22;5068;51.286;7.518;2022-10-16T03:24:29;10.90;67.80
10057;DHT22;5068;51.286;7.518;2022-10-16T03:26:05;10.90;67.80
10057;DHT22;5068;51.286;7.518;2022-10-16T03:27:41;10.90;67.80
10057;DHT22;5068;51.286;7.518;2022-10-16T03:29:14;10.90;67.90
10057;DHT22;5068;51.286;7.518;2022-10-16T03:30:48;10.90;67.90
10057;DHT22;5068;51.286;7.518;2022-10-16T03:32:22;10.90;67.90
10057;DHT22;5068;51.286;7.518;2022-10-16T03:34:03;10.80;67.90
10057;DHT22;5068;51.286;7.518;2022-10-16T03:35:37;10.80;67.90
10057;DHT22;5068;51.286;7.518;2022-10-16T03:37:12;10.80;67.90
10057;DHT22;5068;51.286;7.518;2022-10-16T03:38:48;10.80;68.00
10057;DHT22;5068;51.286;7.518;2022-10-16T03:40:23;10.80;68.10
10057;DHT22;5068;51.286;7.518;2022-10-16T03:41:58;10.80;68.10
10057;DHT22;5068;51.286;7.518;2022-10-16T03:43:33;10.80;68.20
10057;DHT22;5068;51.286;7.518;2022-10-16T03:45:08;10.70;68.20
10057;DHT22;5068;51.286;7.518;2022-10-16T03:46:43;10.80;68.40
10057;DHT22;5068;51.286;7.518;2022-10-16T03:48:24;10.80;68.40
10057;DHT22;5068;51.286;7.518;2022-10-16T03:50:03;10.70;68.30
10057;DHT22;5068;51.286;7.518;2022-10-16T03:51:37;10.80;68.40
10057;DHT22;5068;51.286;7.518;2022-10-16T03:53:10;10.70;68.20
10057;DHT22;5068;51.286;7.518;2022-10-16T03:54:43;10.80;69.00
10057;DHT22;5068;51.286;7.518;2022-10-16T03:56:20;10.70;68.10
10057;DHT22;5068;51.286;7.518;2022-10-16T03:57:57;10.70;68.10
10057;DHT22;5068;51.286;7.518;2022-10-16T03:59:30;10.70;68.00
10057;DHT22;5068;51.286;7.518;2022-10-16T04:01:03;10.70;68.00
10057;DHT22;5068;51.286;7.518;2022-10-16T04:02:42;10.70;68.00
10057;DHT22;5068;51.286;7.518;2022-10-16T04:04:14;10.80;68.20
10057;DHT22;5068;51.286;7.518;2022-10-16T04:05:52;10.70;68.10
10057;DHT22;5068;51.286;7.518;2022-10-16T04:07:26;10.80;68.30
10057;DHT22;5068;51.286;7.518;2022-10-16T04:09:05;10.70;68.30
10057;DHT22;5068;51.286;7.518;2022-10-16T04:10:42;10.70;68.40
10057;DHT22;5068;51.286;7.518;2022-10-16T04:12:15;10.70;68.40
10057;DHT22;5068;51.286;7.518;2022-10-16T04:13:49;10.70;68.40
10057;DHT22;5068;51.286;7.518;2022-10-16T04:15:26;10.70;68.40
10057;DHT22;5068;51.286;7.518;2022-10-16T04:17:10;10.70;68.40
10057;DHT22;5068;51.286;7.518;2022-10-16T04:18:45;10.70;68.50
10057;DHT22;5068;51.286;7.518;2022-10-16T04:20:21;10.70;68.40
10057;DHT22;5068;51.286;7.518;2022-10-16T04:21:57;10.70;68.40
10057;DHT22;5068;51.286;7.518;2022-10-16T04:23:30;10.70;68.40
10057;DHT22;5068;51.286;7.518;2022-10-16T04:25:10;10.70;68.40
10057;DHT22;5068;51.286;7.518;2022-10-16T04:26:51;10.70;68.40
10057;DHT22;5068;51.286;7.518;2022-10-16T04:28:27;10.70;68.40
10057;DHT22;5068;51.286;7.518;2022-10-16T04:30:02;10.70;68.40
10057;DHT22;5068;51.286;7.518;2022-10-16T04:31:48;10.70;68.40
10057;DHT22;5068;51.286;7.518;2022-10-16T04:33:21;10.70;68.50
10057;DHT22;5068;51.286;7.518;2022-10-16T04:34:55;10.70;68.50
10057;DHT22;5068;51.286;7.518;2022-10-16T04:36:28;10.70;68.60
10057;DHT22;5068;51.286;7.518;2022-10-16T04:38:04;10.70;68.60
10057;DHT22;5068;51.286;7.518;2022-10-16T04:39:37;10.70;68.70
10057;DHT22;5068;51.286;7.518;2022-10-16T04:41:11;10.70;68.60
10057;DHT22;5068;51.286;7.518;2022-10-16T04:42:44;10.70;68.60
10057;DHT22;5068;51.286;7.518;2022-10-16T04:44:22;10.70;68.70
10057;DHT22;5068;51.286;7.518;2022-10-16T04:45:55;10.70;68.60
10057;DHT22;5068;51.286;7.518;2022-10-16T04:47:30;10.70;68.60
10057;DHT22;5068;51.286;7.518;2022-10-16T04:49:04;10.70;68.70
10057;DHT22;5068;51.286;7.518;2022-10-16T04:50:38;10.70;68.70
10057;DHT22;5068;51.286;7.518;2022-10-16T04:52:12;10.70;68.70
10057;DHT22;5068;51.286;7.518;2022-10-16T04:53:48;10.70;68.70
10057;DHT22;5068;51.286;7.518;2022-10-16T04:55:24;10.70;68.80
10057;DHT22;5068;51.286;7.518;2022-10-16T04:57:02;10.70;68.90
10057;DHT22;5068;51.286;7.518;2022-10-16T04:58:36;10.70;68.80
10057;DHT22;5068;51.286;7.518;2022-10-16T05:00:13;10.70;68.80
10057;DHT22;5068;51.286;7.518;2022-10-16T05:01:46;10.70;68.80
10057;DHT22;5068;51.286;7.518;2022-10-16T05:03:30;10.70;68.80
10057;DHT22;5068;51.286;7.518;2022-10-16T05:05:05;10.70;69.00
10057;DHT22;5068;51.286;7.518;2022-10-16T05:06:40;10.70;68.90
10057;DHT22;5068;51.286;7.518;2022-10-16T05:08:16;10.70;68.90
10057;DHT22;5068;51.286;7.518;2022-10-16T05:09:49;10.70;68.90
10057;DHT22;5068;51.286;7.518;2022-10-16T05:11:23;10.60;68.70
10057;DHT22;5068;51.286;7.518;2022-10-16T05:13:01;10.70;68.80
10057;DHT22;5068;51.286;7.518;2022-10-16T05:14:34;10.70;68.80
10057;DHT22;5068;51.286;7.518;2022-10-16T05:16:07;10.70;68.80
10057;DHT22;5068;51.286;7.518;2022-10-16T05:17:46;10.60;68.60
10057;DHT22;5068;51.286;7.518;2022-10-16T05:19:21;10.70;68.60
10057;DHT22;5068;51.286;7.518;2022-10-16T05:20:59;10.70;68.50
10057;DHT22;5068;51.286;7.518;2022-10-16T05:22:32;10.60;68.30
10057;DHT22;5068;51.286;7.518;2022-10-16T05:24:06;10.60;68.30
10057;DHT22;5068;51.286;7.518;2022-10-16T05:25:40;10.60;68.30
10057;DHT22;5068;51.286;7.518;2022-10-16T05:27:18;10.60;68.40
10057;DHT22;5068;51.286;7.518;2022-10-16T05:28:51;10.60;68.40
10057;DHT22;5068;51.286;7.518;2022-10-16T05:30:24;10.60;68.40
10057;DHT22;5068;51.286;7.518;2022-10-16T05:32:00;10.50;68.40
10057;DHT22;5068;51.286;7.518;2022-10-16T05:33:35;10.60;68.50
10057;DHT22;5068;51.286;7.518;2022-10-16T05:35:10;10.60;68.60
10057;DHT22;5068;51.286;7.518;2022-10-16T05:36:45;10.50;68.50
10057;DHT22;5068;51.286;7.518;2022-10-16T05:38:19;10.50;68.50
10057;DHT22;5068;51.286;7.518;2022-10-16T05:39:53;10.50;68.40
10057;DHT22;5068;51.286;7.518;2022-10-16T05:41:29;10.50;68.40
10057;DHT22;5068;51.286;7.518;2022-10-16T05:43:05;10.50;68.40
10057;DHT22;5068;51.286;7.518;2022-10-16T05:44:40;10.50;68.50
10057;DHT22;5068;51.286;7.518;2022-10-16T05:46:15;10.50;68.60
10057;DHT22;5068;51.286;7.518;2022-10-16T05:47:47;10.50;68.70
10057;DHT22;5068;51.286;7.518;2022-10-16T05:49:21;10.50;68.70
10057;DHT22;5068;51.286;7.518;2022-10-16T05:51:00;10.50;68.70
10057;DHT22;5068;51.286;7.518;2022-10-16T05:52:38;10.50;68.80
10057;DHT22;5068;51.286;7.518;2022-10-16T05:54:17;10.50;68.70
10057;DHT22;5068;51.286;7.518;2022-10-16T05:55:53;10.50;68.70
10057;DHT22;5068;51.286;7.518;2022-10-16T05:57:29;10.50;68.80
10057;DHT22;5068;51.286;7.518;2022-10-16T05:59:03;10.40;68.70
10057;DHT22;5068;51.286;7.518;2022-10-16T06:00:40;10.40;68.60
10057;DHT22;5068;51.286;7.518;2022-10-16T06:02:15;10.50;68.70
10057;DHT22;5068;51.286;7.518;2022-10-16T06:03:52;10.40;68.70
10057;DHT22;5068;51.286;7.518;2022-10-16T06:05:29;10.40;68.80
10057;DHT22;5068;51.286;7.518;2022-10-16T06:07:02;10.40;68.90
10057;DHT22;5068;51.286;7.518;2022-10-16T06:08:37;10.40;69.00
10057;DHT22;5068;51.286;7.518;2022-10-16T06:10:11;10.40;69.10
10057;DHT22;5068;51.286;7.518;2022-10-16T06:11:48;10.40;69.10
10057;DHT22;5068;51.286;7.518;2022-10-16T06:13:21;10.40;69.20
10057;DHT22;5068;51.286;7.518;2022-10-16T06:14:56;10.40;69.30
10057;DHT22;5068;51.286;7.518;2022-10-16T06:16:29;10.40;69.30
10057;DHT22;5068;51.286;7.518;2022-10-16T06:18:06;10.40;69.30
10057;DHT22;5068;51.286;7.518;2022-10-16T06:19:39;10.50;69.60
10057;DHT22;5068;51.286;7.518;2022-10-16T06:21:15;10.40;69.60
10057;DHT22;5068;51.286;7.518;2022-10-16T06:22:51;10.40;69.70
10057;DHT22;5068;51.286;7.518;2022-10-16T06:24:25;10.40;69.80
10057;DHT22;5068;51.286;7.518;2022-10-16T06:26:04;10.40;69.80
10057;DHT22;5068;51.286;7.518;2022-10-16T06:27:39;10.40;69.90
10057;DHT22;5068;51.286;7.518;2022-10-16T06:29:24;10.40;69.90
10057;DHT22;5068;51.286;7.518;2022-10-16T06:31:01;10.40;70.10
10057;DHT22;5068;51.286;7.518;2022-10-16T06:32:39;10.40;70.20
10057;DHT22;5068;51.286;7.518;2022-10-16T06:34:14;10.40;70.20
10057;DHT22;5068;51.286;7.518;2022-10-16T06:35:47;10.40;70.30
10057;DHT22;5068;51.286;7.518;2022-10-16T06:37:22;10.50;70.40
10057;DHT22;5068;51.286;7.518;2022-10-16T06:39:03;10.50;70.70
10057;DHT22;5068;51.286;7.518;2022-10-16T06:40:39;10.40;70.70
10057;DHT22;5068;51.286;7.518;2022-10-16T06:42:13;10.50;70.80
10057;DHT22;5068;51.286;7.518;2022-10-16T06:43:47;10.50;71.00
10057;DHT22;5068;51.286;7.518;2022-10-16T06:45:26;10.50;71.20
10057;DHT22;5068;51.286;7.518;2022-10-16T06:47:00;10.50;71.20
10057;DHT22;5068;51.286;7.518;2022-10-16T06:48:34;10.50;71.30
10057;DHT22;5068;51.286;7.518;2022-10-16T06:50:09;10.50;71.40
10057;DHT22;5068;51.286;7.518;2022-10-16T06:51:48;10.60;71.60
10057;DHT22;5068;51.286;7.518;2022-10-16T06:53:22;10.60;71.60
10057;DHT22;5068;51.286;7.518;2022-10-16T06:54:57;10.60;71.80
10057;DHT22;5068;51.286;7.518;2022-10-16T06:56:35;10.60;71.90
10057;DHT22;5068;51.286;7.518;2022-10-16T06:58:13;10.60;72.00
10057;DHT22;5068;51.286;7.518;2022-10-16T06:59:46;10.60;72.10
10057;DHT22;5068;51.286;7.518;2022-10-16T07:01:26;10.70;72.20
10057;DHT22;5068;51.286;7.518;2022-10-16T07:03:03;10.70;72.40
10057;DHT22;5068;51.286;7.518;2022-10-16T07:04:40;10.70;72.60
10057;DHT22;5068;51.286;7.518;2022-10-16T07:06:20;10.80;72.90
10057;DHT22;5068;51.286;7.518;2022-10-16T07:07:58;10.80;72.90
10057;DHT22;5068;51.286;7.518;2022-10-16T07:09:31;10.80;73.00
10057;DHT22;5068;51.286;7.518;2022-10-16T07:11:08;10.90;73.20
10057;DHT22;5068;51.286;7.518;2022-10-16T07:12:42;10.90;73.50
10057;DHT22;5068;51.286;7.518;2022-10-16T07:14:19;11.00;73.50
10057;DHT22;5068;51.286;7.518;2022-10-16T07:16:04;11.00;73.60
10057;DHT22;5068;51.286;7.518;2022-10-16T07:17:42;11.00;74.00
10057;DHT22;5068;51.286;7.518;2022-10-16T07:19:15;11.00;74.00
10057;DHT22;5068;51.286;7.518;2022-10-16T07:20:49;11.00;74.20
10057;DHT22;5068;51.286;7.518;2022-10-16T07:22:23;11.20;74.50
10057;DHT22;5068;51.286;7.518;2022-10-16T07:24:02;11.10;74.40
10057;DHT22;5068;51.286;7.518;2022-10-16T07:25:39;11.20;74.60
10057;DHT22;5068;51.286;7.518;2022-10-16T07:27:14;11.20;75.40
10057;DHT22;5068;51.286;7.518;2022-10-16T07:28:49;11.30;75.20
10057;DHT22;5068;51.286;7.518;2022-10-16T07:30:21;11.30;75.50
10057;DHT22;5068;51.286;7.518;2022-10-16T07:31:55;11.30;75.70
10057;DHT22;5068;51.286;7.518;2022-10-16T07:33:30;11.40;76.10
10057;DHT22;5068;51.286;7.518;2022-10-16T07:35:06;11.40;76.20
10057;DHT22;5068;51.286;7.518;2022-10-16T07:36:47;11.50;76.30
10057;DHT22;5068;51.286;7.518;2022-10-16T07:38:24;11.60;76.60
10057;DHT22;5068;51.286;7.518;2022-10-16T07:40:01;11.60;76.50
10057;DHT22;5068;51.286;7.518;2022-10-16T07:41:36;11.70;76.70
10057;DHT22;5068;51.286;7.518;2022-10-16T07:43:11;11.70;76.60
10057;DHT22;5068;51.286;7.518;2022-10-16T07:44:53;11.80;76.60
10057;DHT22;5068;51.286;7.518;2022-10-16T07:46:28;11.90;76.80
10057;DHT22;5068;51.286;7.518;2022-10-16T07:48:09;11.90;76.70
10057;DHT22;5068;51.286;7.518;2022-10-16T07:49:50;12.10;76.90
10057;DHT22;5068;51.286;7.518;2022-10-16T07:51:25;12.00;76.70
10057;DHT22;5068;51.286;7.518;2022-10-16T07:53:04;12.10;76.70
10057;DHT22;5068;51.286;7.518;2022-10-16T07:54:50;12.20;76.90
10057;DHT22;5068;51.286;7.518;2022-10-16T07:56:31;12.40;77.00
10057;DHT22;5068;51.286;7.518;2022-10-16T07:58:21;12.30;76.80
10057;DHT22;5068;51.286;7.518;2022-10-16T07:59:58;12.40;76.80
10057;DHT22;5068;51.286;7.518;2022-10-16T08:01:58;12.40;76.50
10057;DHT22;5068;51.286;7.518;2022-10-16T08:03:40;12.50;76.50
10057;DHT22;5068;51.286;7.518;2022-10-16T08:05:15;12.60;76.30
10057;DHT22;5068;51.286;7.518;2022-10-16T08:07:01;12.60;76.00
10057;DHT22;5068;51.286;7.518;2022-10-16T08:08:44;12.70;75.80
10057;DHT22;5068;51.286;7.518;2022-10-16T08:10:22;12.70;75.50
10057;DHT22;5068;51.286;7.518;2022-10-16T08:12:02;12.80;75.30
10057;DHT22;5068;51.286;7.518;2022-10-16T08:13:45;12.80;74.90
10057;DHT22;5068;51.286;7.518;2022-10-16T08:15:24;12.90;75.10
10057;DHT22;5068;51.286;7.518;2022-10-16T08:17:01;12.90;74.90
10057;DHT22;5068;51.286;7.518;2022-10-16T08:18:36;12.90;74.60
10057;DHT22;5068;51.286;7.518;2022-10-16T08:20:14;13.00;74.70
10057;DHT22;5068;51.286;7.518;2022-10-16T08:21:57;13.00;74.50
10057;DHT22;5068;51.286;7.518;2022-10-16T08:23:31;13.10;74.30
10057;DHT22;5068;51.286;7.518;2022-10-16T08:25:06;13.10;74.20
10057;DHT22;5068;51.286;7.518;2022-10-16T08:26:43;13.20;74.00
10057;DHT22;5068;51.286;7.518;2022-10-16T08:28:20;13.20;73.80
10057;DHT22;5068;51.286;7.518;2022-10-16T08:29:56;13.20;73.60
10057;DHT22;5068;51.286;7.518;2022-10-16T08:31:30;13.30;73.60
10057;DHT22;5068;51.286;7.518;2022-10-16T08:33:07;13.40;73.50
10057;DHT22;5068;51.286;7.518;2022-10-16T08:34:43;13.40;73.20
10057;DHT22;5068;51.286;7.518;2022-10-16T08:36:24;13.50;73.10
10057;DHT22;5068;51.286;7.518;2022-10-16T08:37:57;13.50;72.90
10057;DHT22;5068;51.286;7.518;2022-10-16T08:39:33;13.60;72.80
10057;DHT22;5068;51.286;7.518;2022-10-16T08:41:27;13.70;72.60
10057;DHT22;5068;51.286;7.518;2022-10-16T08:43:28;13.70;72.10
10057;DHT22;5068;51.286;7.518;2022-10-16T08:45:34;13.80;71.80
10057;DHT22;5068;51.286;7.518;2022-10-16T08:47:24;13.80;71.50
10057;DHT22;5068;51.286;7.518;2022-10-16T08:49:19;13.90;71.50
10057;DHT22;5068;51.286;7.518;2022-10-16T08:50:56;14.00;71.40
10057;DHT22;5068;51.286;7.518;2022-10-16T08:52:34;13.90;71.20
10057;DHT22;5068;51.286;7.518;2022-10-16T08:54:25;14.10;71.00
10057;DHT22;5068;51.286;7.518;2022-10-16T08:56:04;14.10;70.50
10057;DHT22;5068;51.286;7.518;2022-10-16T08:57:38;14.10;70.20
10057;DHT22;5068;51.286;7.518;2022-10-16T08:59:14;14.20;70.30
10057;DHT22;5068;51.286;7.518;2022-10-16T09:00:54;14.30;70.20
10057;DHT22;5068;51.286;7.518;2022-10-16T09:02:39;14.30;69.80
10057;DHT22;5068;51.286;7.518;2022-10-16T09:04:52;14.30;69.70
10057;DHT22;5068;51.286;7.518;2022-10-16T09:06:46;14.40;69.00
10057;DHT22;5068;51.286;7.518;2022-10-16T09:08:31;14.50;68.40
10057;DHT22;5068;51.286;7.518;2022-10-16T09:10:22;14.60;68.70
10057;DHT22;5068;51.286;7.518;2022-10-16T09:12:11;14.60;68.20
10057;DHT22;5068;51.286;7.518;2022-10-16T09:13:53;14.70;67.80
10057;DHT22;5068;51.286;7.518;2022-10-16T09:15:35;14.70;67.70
10057;DHT22;5068;51.286;7.518;2022-10-16T09:17:27;14.80;67.80
10057;DHT22;5068;51.286;7.518;2022-10-16T09:19:13;14.90;68.50
10057;DHT22;5068;51.286;7.518;2022-10-16T09:20:59;15.00;66.90
10057;DHT22;5068;51.286;7.518;2022-10-16T09:22:40;15.00;66.30
10057;DHT22;5068;51.286;7.518;2022-10-16T09:24:29;15.10;66.30
10057;DHT22;5068;51.286;7.518;2022-10-16T09:26:05;15.20;66.00
10057;DHT22;5068;51.286;7.518;2022-10-16T09:27:47;15.30;66.00
10057;DHT22;5068;51.286;7.518;2022-10-16T09:29:24;15.30;66.30
10057;DHT22;5068;51.286;7.518;2022-10-16T09:31:02;15.40;66.20
10057;DHT22;5068;51.286;7.518;2022-10-16T09:32:40;15.50;66.10
10057;DHT22;5068;51.286;7.518;2022-10-16T09:34:24;15.50;65.20
10057;DHT22;5068;51.286;7.518;2022-10-16T09:36:13;15.70;64.60
10057;DHT22;5068;51.286;7.518;2022-10-16T09:37:51;15.70;63.90
10057;DHT22;5068;51.286;7.518;2022-10-16T09:39:45;15.80;63.70
10057;DHT22;5068;51.286;7.518;2022-10-16T09:41:29;15.80;63.40
10057;DHT22;5068;51.286;7.518;2022-10-16T09:43:15;15.90;63.20
10057;DHT22;5068;51.286;7.518;2022-10-16T09:44:55;16.00;62.70
10057;DHT22;5068;51.286;7.518;2022-10-16T09:46:35;16.10;62.90
10057;DHT22;5068;51.286;7.518;2022-10-16T09:48:12;16.20;62.90
10057;DHT22;5068;51.286;7.518;2022-10-16T09:49:53;16.30;62.70
10057;DHT22;5068;51.286;7.518;2022-10-16T09:51:32;16.30;62.30
10057;DHT22;5068;51.286;7.518;2022-10-16T09:53:12;16.40;61.70
10057;DHT22;5068;51.286;7.518;2022-10-16T09:54:55;16.50;62.10
10057;DHT22;5068;51.286;7.518;2022-10-16T09:56:33;16.60;61.00
10057;DHT22;5068;51.286;7.518;2022-10-16T09:58:13;16.70;61.40
10057;DHT22;5068;51.286;7.518;2022-10-16T09:59:57;16.70;60.90
10057;DHT22;5068;51.286;7.518;2022-10-16T10:01:36;16.80;60.80
10057;DHT22;5068;51.286;7.518;2022-10-16T10:03:12;16.90;60.60
10057;DHT22;5068;51.286;7.518;2022-10-16T10:05:18;17.00;60.70
10057;DHT22;5068;51.286;7.518;2022-10-16T10:07:01;17.10;58.70
10057;DHT22;5068;51.286;7.518;2022-10-16T10:08:37;17.20;59.90
10057;DHT22;5068;51.286;7.518;2022-10-16T10:10:20;17.30;59.20
10057;DHT22;5068;51.286;7.518;2022-10-16T10:11:59;17.30;58.10
10057;DHT22;5068;51.286;7.518;2022-10-16T10:13:40;17.40;58.80
10057;DHT22;5068;51.286;7.518;2022-10-16T10:15:19;17.50;59.00
10057;DHT22;5068;51.286;7.518;2022-10-16T10:17:12;17.60;58.60
10057;DHT22;5068;51.286;7.518;2022-10-16T10:18:58;17.70;57.20
10057;DHT22;5068;51.286;7.518;2022-10-16T10:20:35;17.70;57.40
10057;DHT22;5068;51.286;7.518;2022-10-16T10:22:29;17.80;57.50
10057;DHT22;5068;51.286;7.518;2022-10-16T10:24:16;17.90;56.50
10057;DHT22;5068;51.286;7.518;2022-10-16T10:25:53;17.90;57.20
10057;DHT22;5068;51.286;7.518;2022-10-16T10:27:39;18.00;56.50
10057;DHT22;5068;51.286;7.518;2022-10-16T10:29:31;18.00;55.90
10057;DHT22;5068;51.286;7.518;2022-10-16T10:31:22;18.10;55.70
10057;DHT22;5068;51.286;7.518;2022-10-16T10:33:21;18.10;55.70
10057;DHT22;5068;51.286;7.518;2022-10-16T10:35:14;18.10;54.80